Observations for CULDROSE NAVY, United Kingdom (EGDR)

EGDR 220450Z 09015KT 0300 FG SCT000 BKN001 15/15 Q1017 RED  
EGDR 220350Z 09015KT 0500 FG SCT001 BKN002 14/14 Q1017 RED  
EGDR 220250Z AUTO 08013KT 0300 // VV/// 14/14 Q1018 
EGDR 220150Z AUTO 08011KT 0200 // VV/// 14/14 Q1018 
EGDR 220050Z AUTO 09011KT 0350 // OVC001/// 15/14 Q1018 
EGDR 212350Z AUTO 10007KT 0200 // VV/// 15/15 Q1019 
EGDR 212250Z 09006KT 0250 FG VV/// 15/15 Q1019 RED  
EGDR 212150Z 09005KT 0250 FG VV/// 15/15 Q1020 RED  
EGDR 212050Z 10003KT 0500 FG VV/// 15/15 Q1020 RED  
EGDR 211950Z 18003KT 0750 FG VV/// 15/15 Q1020 RED  
EGDR 211850Z AUTO 20006KT 2700 // OVC001/// 16/15 Q1020 
EGDR 211750Z 22004KT 0500 FG VV/// 16/16 Q1020 RED  
EGDR 211650Z 19004KT 6000 HZ SCT004 BKN006 17/16 Q1020 REDZ YLO2
EGDR 211550Z 19006KT 5000 -DZ BKN004 OVC006 17/16 Q1021 YLO2
EGDR 211450Z 22006KT 9999 SCT006 BKN008 18/16 Q1021 YLO1 BECMG 2000 SCT004 YLO2 
EGDR 211350Z 21006KT 9999 FEW006 BKN010 18/16 Q1021 GRN TEMPO 8000 HZ SCT006 YLO1   
EGDR 211250Z 22008KT 9999 FEW008 BKN012 18/16 Q1021 GRN NOSIG   
EGDR 211150Z 22008KT 9999 FEW010 SCT014 19/16 Q1021 GRN NOSIG   
EGDR 211050Z 22007KT 9999 FEW010 SCT016 19/16 Q1022 WHT TEMPO SCT010 GRN
EGDR 210950Z 23007KT 9999 FEW014 SCT016 18/16 Q1022 WHT TEMPO SCT010
EGDR 210850Z 23007KT 9999 FEW007 SCT012 17/16 Q1022 GRN NOSIG   
EGDR 210750Z 23005KT 9999 FEW004 SCT007 16/15 Q1022 GRN TEMPO SCT006
EGDR 210650Z 26009KT 3000 BR FEW002 SCT004 OVC006 16/15 Q1022 YLO2 TEMPO 0500 FG SCT000 OVC002  
EGDR 210550Z 24007KT 3000 BR FEW002 SCT004 OVC006 16/15 Q1021 YLO2 TEMPO 0500 FG SCT000 OVC002  
EGDR 210450Z 25008KT 0300 FG VV/// 16/16 Q1021 RED